createdAt,value
2018-08-16T00:01:11.809Z,10.70
2018-08-16T00:03:40.072Z,10.47
2018-08-16T00:06:08.392Z,10.47
2018-08-16T00:08:36.721Z,11.13
2018-08-16T00:11:05.005Z,10.53
2018-08-16T00:13:33.269Z,10.87
2018-08-16T00:16:01.547Z,10.43
2018-08-16T00:18:29.825Z,10.40
2018-08-16T00:20:58.100Z,10.53
2018-08-16T00:23:26.377Z,9.90
2018-08-16T00:25:54.641Z,10.47
2018-08-16T00:28:22.926Z,9.83
2018-08-16T00:30:51.182Z,10.17
2018-08-16T00:33:19.445Z,10.00
2018-08-16T00:35:47.693Z,9.97
2018-08-16T00:38:15.970Z,10.27
2018-08-16T00:40:44.209Z,10.03
2018-08-16T00:43:12.614Z,9.77
2018-08-16T00:45:40.971Z,10.53
2018-08-16T00:48:09.257Z,10.97
2018-08-16T00:50:37.506Z,10.40
2018-08-16T00:53:06.260Z,9.70
2018-08-16T00:55:34.634Z,10.27
2018-08-16T00:58:02.949Z,10.47
2018-08-16T01:00:31.331Z,10.67
2018-08-16T01:02:59.614Z,10.97
2018-08-16T01:05:27.885Z,10.27
2018-08-16T01:07:56.184Z,10.87
2018-08-16T01:10:24.440Z,10.90
2018-08-16T01:12:52.730Z,10.27
2018-08-16T01:15:21.068Z,10.83
2018-08-16T01:17:49.641Z,11.00
2018-08-16T01:20:17.920Z,11.33
2018-08-16T01:22:46.194Z,11.47
2018-08-16T01:25:14.633Z,10.80
2018-08-16T01:27:42.925Z,10.47
2018-08-16T01:30:11.432Z,11.77
2018-08-16T01:32:39.843Z,11.43
2018-08-16T01:35:09.093Z,11.00
2018-08-16T01:37:37.545Z,10.70
2018-08-16T01:40:06.590Z,11.93
2018-08-16T01:42:34.917Z,10.97
2018-08-16T01:45:03.345Z,11.47
2018-08-16T01:47:31.675Z,11.83
2018-08-16T01:49:59.920Z,11.67
2018-08-16T01:52:28.164Z,11.60
2018-08-16T01:54:56.485Z,10.60
2018-08-16T01:57:24.749Z,11.03
2018-08-16T01:59:52.989Z,11.33
2018-08-16T02:02:21.233Z,12.27
2018-08-16T02:04:49.688Z,12.30
2018-08-16T02:07:17.984Z,11.33
2018-08-16T02:09:46.407Z,12.50
2018-08-16T02:12:14.761Z,12.53
2018-08-16T02:14:43.104Z,12.03
2018-08-16T02:17:13.118Z,11.80
2018-08-16T02:19:41.453Z,11.93
2018-08-16T02:22:09.800Z,11.63
2018-08-16T02:24:38.204Z,12.73
2018-08-16T02:27:06.639Z,12.33
2018-08-16T02:29:34.996Z,13.10
2018-08-16T02:32:03.368Z,12.77
2018-08-16T02:34:31.751Z,11.73
2018-08-16T02:37:00.229Z,14.00
2018-08-16T02:39:28.625Z,14.47
2018-08-16T02:41:57.029Z,14.37
2018-08-16T02:44:25.450Z,15.27
2018-08-16T02:46:53.799Z,15.37
2018-08-16T02:49:22.124Z,16.43
2018-08-16T02:51:50.452Z,16.13
2018-08-16T02:54:18.806Z,16.87
2018-08-16T02:56:47.164Z,18.03
2018-08-16T02:59:15.552Z,18.47
2018-08-16T03:01:43.916Z,17.20
2018-08-16T03:04:12.301Z,17.40
2018-08-16T03:06:40.804Z,16.43
2018-08-16T03:09:10.404Z,16.33
2018-08-16T03:11:38.960Z,17.03
2018-08-16T03:14:07.373Z,15.93
2018-08-16T03:16:35.788Z,15.40
2018-08-16T03:19:04.187Z,14.83
2018-08-16T03:21:32.612Z,13.77
2018-08-16T03:24:00.937Z,15.10
2018-08-16T03:26:29.269Z,15.03
2018-08-16T03:28:57.588Z,14.40
2018-08-16T03:31:25.966Z,14.50
2018-08-16T03:33:54.414Z,15.47
2018-08-16T03:36:22.952Z,14.83
2018-08-16T03:38:51.303Z,15.40
2018-08-16T03:41:19.700Z,15.27
2018-08-16T03:43:48.060Z,14.37
2018-08-16T03:46:16.379Z,14.87
2018-08-16T03:48:44.716Z,15.27
2018-08-16T03:51:13.161Z,15.60
2018-08-16T03:53:41.582Z,15.40
2018-08-16T03:56:09.921Z,15.07
2018-08-16T03:58:38.272Z,15.50
2018-08-16T04:01:06.626Z,14.90
2018-08-16T04:03:35.001Z,15.87
2018-08-16T04:06:03.413Z,15.23
2018-08-16T04:08:31.759Z,15.33
2018-08-16T04:11:00.068Z,15.63
2018-08-16T04:13:28.505Z,15.60
2018-08-16T04:15:56.894Z,15.93
2018-08-16T04:18:25.243Z,15.93
2018-08-16T04:20:53.640Z,15.83
2018-08-16T04:23:21.960Z,17.13
2018-08-16T04:25:50.296Z,15.97
2018-08-16T04:28:18.663Z,15.90
2018-08-16T04:30:47.004Z,16.37
2018-08-16T04:33:15.525Z,16.60
2018-08-16T04:35:43.920Z,16.00
2018-08-16T04:38:12.296Z,16.33
2018-08-16T04:40:40.746Z,16.07
2018-08-16T04:43:09.076Z,16.77
2018-08-16T04:45:37.488Z,16.83
2018-08-16T04:48:06.362Z,15.70
2018-08-16T04:50:34.700Z,16.70
2018-08-16T04:53:03.077Z,17.20
2018-08-16T04:55:31.533Z,17.33
2018-08-16T04:57:59.883Z,16.10
2018-08-16T05:00:28.257Z,17.50
2018-08-16T05:02:56.590Z,16.83
2018-08-16T05:05:24.898Z,17.17
2018-08-16T05:07:53.272Z,15.87
2018-08-16T05:10:21.579Z,16.03
2018-08-16T05:12:50.033Z,17.47
2018-08-16T05:15:18.363Z,16.57
2018-08-16T05:17:46.735Z,16.10
2018-08-16T05:20:15.116Z,16.27
2018-08-16T05:22:43.465Z,15.43
2018-08-16T05:25:11.888Z,16.53
2018-08-16T05:27:40.224Z,17.30
2018-08-16T05:30:10.696Z,17.60
2018-08-16T05:32:39.056Z,16.43
2018-08-16T05:35:07.589Z,16.80
2018-08-16T05:37:36.912Z,16.17
2018-08-16T05:40:06.766Z,15.43
2018-08-16T05:42:35.208Z,16.80
2018-08-16T05:45:03.715Z,15.93
2018-08-16T05:47:32.069Z,16.10
2018-08-16T05:50:00.437Z,15.63
2018-08-16T05:52:28.886Z,16.10
2018-08-16T05:54:57.348Z,15.17
2018-08-16T05:57:25.842Z,15.90
2018-08-16T05:59:54.254Z,15.43
2018-08-16T06:02:22.732Z,15.27
2018-08-16T06:04:51.060Z,16.67
2018-08-16T06:07:19.431Z,15.17
2018-08-16T06:09:47.836Z,15.63
2018-08-16T06:12:16.266Z,15.33
2018-08-16T06:14:44.608Z,14.53
2018-08-16T06:17:12.992Z,15.47
2018-08-16T06:19:41.357Z,14.57
2018-08-16T06:22:09.889Z,13.90
2018-08-16T06:24:38.229Z,15.90
2018-08-16T06:27:07.253Z,14.77
2018-08-16T06:29:35.708Z,14.33
2018-08-16T06:32:04.244Z,14.53
2018-08-16T06:34:32.596Z,14.23
2018-08-16T06:37:01.499Z,14.60
2018-08-16T06:39:29.868Z,13.87
2018-08-16T06:41:58.253Z,14.07
2018-08-16T06:44:26.896Z,13.83
2018-08-16T06:46:55.277Z,14.73
2018-08-16T06:49:23.688Z,12.83
2018-08-16T06:51:52.178Z,14.40
2018-08-16T06:54:20.508Z,15.17
2018-08-16T06:56:48.972Z,14.50
2018-08-16T06:59:17.414Z,14.00
2018-08-16T07:01:45.792Z,15.13
2018-08-16T07:04:14.155Z,14.40
2018-08-16T07:06:42.525Z,15.13
2018-08-16T07:09:11.868Z,13.90
2018-08-16T07:11:40.443Z,15.20
2018-08-16T07:14:08.861Z,14.43
2018-08-16T07:16:37.201Z,13.57
2018-08-16T07:19:05.697Z,13.30
2018-08-16T07:21:34.076Z,14.23
2018-08-16T07:24:02.585Z,13.93
2018-08-16T07:26:30.917Z,13.20
2018-08-16T07:28:59.328Z,15.47
2018-08-16T07:31:27.653Z,14.03
2018-08-16T07:33:55.960Z,12.30
2018-08-16T07:36:24.301Z,11.93
2018-08-16T07:38:52.658Z,11.87
2018-08-16T07:41:20.989Z,13.40
2018-08-16T07:43:49.470Z,11.63
2018-08-16T07:46:17.896Z,13.97
2018-08-16T07:48:46.193Z,13.07
2018-08-16T07:51:14.777Z,13.90
2018-08-16T07:53:43.105Z,12.27
2018-08-16T07:56:11.572Z,12.67
2018-08-16T07:58:40.015Z,13.70
2018-08-16T08:01:08.556Z,13.63
2018-08-16T08:03:36.929Z,12.13
2018-08-16T08:06:05.504Z,13.43
2018-08-16T08:08:33.842Z,16.90
2018-08-16T08:11:02.250Z,17.00
2018-08-16T08:13:30.726Z,15.97
2018-08-16T08:15:59.121Z,18.03
2018-08-16T08:18:27.480Z,16.17
2018-08-16T08:20:55.990Z,17.77
2018-08-16T08:23:24.416Z,16.60
2018-08-16T08:25:52.765Z,16.87
2018-08-16T08:28:21.275Z,18.23
2018-08-16T08:30:49.744Z,16.40
2018-08-16T08:33:18.153Z,15.60
2018-08-16T08:35:56.553Z,15.63
2018-08-16T08:38:24.966Z,17.87
2018-08-16T08:40:53.245Z,18.77
2018-08-16T08:43:32.832Z,17.35
2018-08-16T08:46:01.209Z,16.57
2018-08-16T08:48:29.543Z,17.40
2018-08-16T08:50:57.892Z,16.52
2018-08-16T08:55:42.026Z,14.90
2018-08-16T08:58:21.525Z,15.35
2018-08-16T09:00:49.901Z,14.75
2018-08-16T09:03:18.340Z,13.40
2018-08-16T09:05:46.705Z,13.38
2018-08-16T09:08:15.062Z,13.32
2018-08-16T09:13:55.546Z,14.00
2018-08-16T09:16:30.786Z,11.80
2018-08-16T09:18:59.468Z,10.40
2018-08-16T09:21:28.873Z,11.68
2018-08-16T09:23:57.258Z,11.20
2018-08-16T09:26:30.744Z,11.40
2018-08-16T09:28:59.264Z,8.75
2018-08-16T09:31:38.946Z,8.93
2018-08-16T09:34:16.912Z,9.70
2018-08-16T09:36:45.444Z,10.00
2018-08-16T09:39:13.835Z,9.10
2018-08-16T09:41:42.209Z,9.48
2018-08-16T09:44:10.577Z,9.05
2018-08-16T09:46:53.552Z,8.58
2018-08-16T09:49:21.932Z,7.42
2018-08-16T09:51:50.261Z,6.70
2018-08-16T09:54:18.668Z,7.50
2018-08-16T09:56:47.553Z,6.75
2018-08-16T09:59:16.305Z,7.12
2018-08-16T10:01:44.724Z,5.97
2018-08-16T10:04:13.089Z,6.42
2018-08-16T10:06:42.277Z,5.55
2018-08-16T10:09:14.765Z,5.35
2018-08-16T10:11:43.444Z,5.97
2018-08-16T10:14:11.888Z,4.83
2018-08-16T10:16:40.628Z,4.78
2018-08-16T10:19:09.741Z,4.87
2018-08-16T10:21:38.645Z,5.17
2018-08-16T10:24:07.498Z,5.65
2018-08-16T10:26:36.328Z,4.70
2018-08-16T10:29:06.172Z,5.10
2018-08-16T10:31:34.844Z,4.97
2018-08-16T10:34:03.341Z,4.83
2018-08-16T10:36:31.678Z,5.37
2018-08-16T10:39:00.172Z,5.05
2018-08-16T10:41:29.020Z,4.40
2018-08-16T10:43:57.392Z,5.12
2018-08-16T10:46:25.890Z,3.90
2018-08-16T10:48:54.232Z,4.10
2018-08-16T10:51:22.609Z,4.50
2018-08-16T10:53:50.939Z,4.22
2018-08-16T10:56:19.391Z,4.12
2018-08-16T10:58:47.762Z,4.10
2018-08-16T11:01:16.196Z,4.85
2018-08-16T11:03:44.608Z,5.20
2018-08-16T11:06:12.951Z,4.95
2018-08-16T11:08:41.289Z,4.83
2018-08-16T11:11:10.010Z,4.87
2018-08-16T11:13:38.377Z,4.70
2018-08-16T11:16:06.811Z,4.90
2018-08-16T11:18:35.148Z,4.87
2018-08-16T11:21:03.505Z,4.40
2018-08-16T11:23:31.924Z,5.62
2018-08-16T11:26:00.256Z,4.30
2018-08-16T11:28:28.659Z,4.47
2018-08-16T11:30:57.066Z,4.10
2018-08-16T11:33:25.418Z,4.03
2018-08-16T11:35:53.821Z,4.60
2018-08-16T11:38:22.169Z,4.03
2018-08-16T11:40:50.457Z,4.60
2018-08-16T11:43:18.804Z,4.50
2018-08-16T11:45:47.135Z,4.20
2018-08-16T11:48:15.480Z,4.08
2018-08-16T11:50:43.813Z,4.33
2018-08-16T11:53:12.125Z,4.30
2018-08-16T11:55:40.645Z,4.75
2018-08-16T11:58:09.002Z,4.50
2018-08-16T12:00:37.393Z,4.28
2018-08-16T12:03:06.375Z,3.40
2018-08-16T12:05:34.752Z,4.80
2018-08-16T12:08:03.129Z,5.05
2018-08-16T12:10:31.425Z,4.85
2018-08-16T12:13:00.316Z,4.22
2018-08-16T12:15:28.651Z,4.15
2018-08-16T12:17:57.181Z,4.25
2018-08-16T12:20:25.488Z,4.20
2018-08-16T12:22:54.017Z,4.65
2018-08-16T12:25:22.409Z,4.72
2018-08-16T12:27:50.779Z,5.75
2018-08-16T12:30:19.146Z,4.80
2018-08-16T12:32:47.464Z,4.40
2018-08-16T12:35:16.004Z,5.00
2018-08-16T12:37:44.426Z,4.62
2018-08-16T12:40:12.927Z,4.33
2018-08-16T12:42:41.389Z,4.03
2018-08-16T12:45:09.853Z,3.80
2018-08-16T12:47:38.192Z,4.00
2018-08-16T12:50:07.224Z,4.10
2018-08-16T12:52:35.590Z,3.87
2018-08-16T12:55:04.243Z,3.60
2018-08-16T12:57:32.621Z,4.47
2018-08-16T13:00:00.960Z,4.08
2018-08-16T13:02:29.334Z,4.42
2018-08-16T13:04:57.959Z,3.92
2018-08-16T13:07:26.337Z,4.12
2018-08-16T13:09:54.640Z,4.55
2018-08-16T13:12:23.029Z,4.50
2018-08-16T13:14:51.435Z,4.28
2018-08-16T13:17:19.809Z,4.58
2018-08-16T13:19:48.225Z,4.40
2018-08-16T13:22:16.572Z,4.28
2018-08-16T13:24:45.006Z,4.17
2018-08-16T13:27:13.530Z,3.90
2018-08-16T13:29:41.801Z,4.00
2018-08-16T13:32:10.164Z,3.45
2018-08-16T13:34:38.505Z,3.80
2018-08-16T13:37:06.886Z,3.75
2018-08-16T13:39:35.264Z,4.10
2018-08-16T13:42:03.584Z,3.60
2018-08-16T13:44:31.988Z,4.10
2018-08-16T13:47:00.360Z,3.42
2018-08-16T13:49:28.744Z,4.25
2018-08-16T13:51:57.109Z,3.45
2018-08-16T13:54:25.520Z,3.22
2018-08-16T13:56:53.840Z,3.70
2018-08-16T13:59:22.196Z,3.65
2018-08-16T14:01:50.553Z,3.92
2018-08-16T14:04:18.905Z,4.10
2018-08-16T14:06:47.322Z,3.62
2018-08-16T14:09:15.691Z,3.50
2018-08-16T14:11:44.074Z,3.85
2018-08-16T14:14:12.403Z,3.52
2018-08-16T14:16:40.748Z,3.45
2018-08-16T14:19:09.133Z,3.70
2018-08-16T14:21:37.456Z,3.33
2018-08-16T14:24:05.967Z,4.10
2018-08-16T14:26:34.311Z,4.12
2018-08-16T14:29:02.637Z,4.20
2018-08-16T14:31:31.008Z,4.15
2018-08-16T14:33:59.522Z,3.98
2018-08-16T14:36:28.004Z,3.70
2018-08-16T14:38:56.372Z,4.10
2018-08-16T14:41:24.764Z,3.50
2018-08-16T14:43:53.176Z,3.67
2018-08-16T14:46:21.587Z,3.92
2018-08-16T14:48:50.128Z,3.70
2018-08-16T14:51:18.538Z,3.42
2018-08-16T14:53:46.953Z,3.52
2018-08-16T14:56:15.276Z,3.52
2018-08-16T14:58:43.625Z,3.87
2018-08-16T15:01:11.923Z,3.87
2018-08-16T15:03:40.270Z,3.72
2018-08-16T15:06:08.892Z,4.35
2018-08-16T15:08:37.240Z,3.83
2018-08-16T15:11:05.667Z,3.70
2018-08-16T15:13:34.066Z,3.80
2018-08-16T15:16:02.605Z,3.40
2018-08-16T15:18:30.934Z,3.58
2018-08-16T15:20:59.333Z,3.80
2018-08-16T15:23:28.024Z,3.37
2018-08-16T15:25:56.448Z,3.40
2018-08-16T15:28:24.800Z,3.80
2018-08-16T15:30:53.150Z,3.80
2018-08-16T15:33:21.451Z,6.67
2018-08-16T15:35:50.514Z,6.53
2018-08-16T15:38:18.916Z,6.10
2018-08-16T15:40:47.252Z,5.58
2018-08-16T15:43:15.560Z,4.30
2018-08-16T15:45:43.881Z,3.75
2018-08-16T15:48:13.081Z,3.87
2018-08-16T15:50:41.948Z,3.72
2018-08-16T15:53:10.512Z,3.60
2018-08-16T15:55:39.506Z,3.60
2018-08-16T15:58:08.829Z,3.85
2018-08-16T16:00:37.166Z,3.50
2018-08-16T16:03:05.863Z,4.45
2018-08-16T16:05:34.317Z,3.50
2018-08-16T16:08:02.599Z,3.72
2018-08-16T16:10:31.081Z,3.40
2018-08-16T16:12:59.507Z,3.95
2018-08-16T16:15:27.861Z,4.08
2018-08-16T16:17:56.153Z,3.77
2018-08-16T16:20:24.745Z,4.20
2018-08-16T16:22:53.897Z,4.95
2018-08-16T16:25:22.276Z,4.83
2018-08-16T16:27:50.654Z,4.78
2018-08-16T16:30:19.095Z,4.45
2018-08-16T16:32:47.455Z,4.42
2018-08-16T16:35:15.817Z,4.55
2018-08-16T16:37:44.228Z,3.70
2018-08-16T16:40:12.560Z,4.53
2018-08-16T16:42:41.187Z,4.05
2018-08-16T16:45:09.877Z,3.90
2018-08-16T16:47:38.259Z,3.58
2018-08-16T16:50:07.725Z,4.03
2018-08-16T16:52:36.263Z,3.92
2018-08-16T16:55:04.922Z,4.83
2018-08-16T16:57:33.335Z,4.58
2018-08-16T17:00:01.902Z,4.80
2018-08-16T17:02:30.342Z,4.30
2018-08-16T17:04:58.842Z,4.58
2018-08-16T17:07:27.308Z,6.25
2018-08-16T17:09:55.624Z,5.33
2018-08-16T17:12:24.284Z,4.42
2018-08-16T17:14:52.682Z,7.08
2018-08-16T17:17:21.360Z,4.80
2018-08-16T17:19:49.972Z,5.65
2018-08-16T17:22:18.385Z,5.30
2018-08-16T17:24:46.724Z,4.92
2018-08-16T17:27:15.030Z,4.60
2018-08-16T17:29:43.340Z,4.83
2018-08-16T17:32:11.795Z,4.47
2018-08-16T17:34:40.056Z,5.33
2018-08-16T17:37:08.396Z,5.05
2018-08-16T17:39:36.740Z,4.92
2018-08-16T17:42:05.312Z,5.33
2018-08-16T17:44:33.704Z,5.00
2018-08-16T17:47:02.077Z,5.33
2018-08-16T17:49:30.449Z,5.72
2018-08-16T17:51:58.828Z,5.67
2018-08-16T17:54:27.244Z,6.35
2018-08-16T17:56:55.681Z,6.20
2018-08-16T17:59:24.019Z,6.50
2018-08-16T18:01:52.337Z,6.85
2018-08-16T18:04:20.701Z,7.15
2018-08-16T18:06:49.144Z,6.33
2018-08-16T18:09:17.520Z,5.90
2018-08-16T18:11:45.865Z,5.70
2018-08-16T18:14:14.253Z,7.20
2018-08-16T18:16:42.616Z,6.35
2018-08-16T18:19:10.960Z,7.37
2018-08-16T18:21:39.372Z,6.55
2018-08-16T18:24:14.533Z,6.87
2018-08-16T18:26:42.854Z,6.42
2018-08-16T18:29:11.189Z,6.20
2018-08-16T18:31:39.508Z,7.10
2018-08-16T18:34:07.981Z,7.00
2018-08-16T18:36:36.348Z,7.60
2018-08-16T18:39:06.928Z,7.20
2018-08-16T18:41:35.370Z,7.20
2018-08-16T18:44:03.834Z,7.58
2018-08-16T18:46:32.299Z,7.15
2018-08-16T18:49:00.648Z,7.30
2018-08-16T18:51:28.971Z,8.03
2018-08-16T18:53:57.361Z,8.00
2018-08-16T18:56:25.685Z,7.97
2018-08-16T18:58:54.030Z,7.70
2018-08-16T19:01:22.433Z,7.80
2018-08-16T19:03:50.720Z,7.97
2018-08-16T19:06:19.072Z,7.50
2018-08-16T19:08:47.384Z,8.00
2018-08-16T19:11:15.748Z,8.10
2018-08-16T19:13:45.160Z,8.90
2018-08-16T19:16:13.588Z,8.30
2018-08-16T19:18:42.121Z,8.60
2018-08-16T19:21:10.533Z,8.67
2018-08-16T19:23:38.928Z,8.90
2018-08-16T19:26:07.373Z,9.20
2018-08-16T19:28:35.700Z,9.37
2018-08-16T19:31:04.148Z,9.57
2018-08-16T19:33:32.668Z,9.33
2018-08-16T19:36:01.101Z,10.27
2018-08-16T19:38:29.424Z,10.23
2018-08-16T19:40:57.761Z,10.20
2018-08-16T19:43:26.141Z,11.30
2018-08-16T19:45:54.697Z,11.20
2018-08-16T19:48:23.024Z,10.63
2018-08-16T19:50:51.369Z,10.43
2018-08-16T19:53:19.684Z,11.77
2018-08-16T19:55:48.056Z,10.80
2018-08-16T19:58:16.415Z,11.37
2018-08-16T20:00:44.716Z,13.00
2018-08-16T20:03:13.144Z,11.50
2018-08-16T20:05:41.560Z,12.47
2018-08-16T20:08:09.916Z,11.77
2018-08-16T20:10:38.297Z,11.93
2018-08-16T20:13:06.707Z,12.17
2018-08-16T20:15:49.628Z,13.00
2018-08-16T20:18:18.021Z,12.00
2018-08-16T20:20:46.444Z,11.30
2018-08-16T20:23:14.891Z,13.30
2018-08-16T20:25:43.229Z,11.53
2018-08-16T20:28:11.652Z,11.50
2018-08-16T20:30:40.012Z,13.27
2018-08-16T20:33:08.439Z,12.77
2018-08-16T20:35:36.864Z,11.70
2018-08-16T20:38:05.298Z,12.80
2018-08-16T20:40:33.633Z,13.40
2018-08-16T20:43:02.060Z,12.60
2018-08-16T20:45:30.406Z,13.70
2018-08-16T20:47:58.784Z,13.97
2018-08-16T20:50:29.189Z,12.57
2018-08-16T20:52:57.525Z,13.77
2018-08-16T20:55:25.852Z,12.80
2018-08-16T20:57:54.237Z,13.40
2018-08-16T21:00:22.719Z,12.53
2018-08-16T21:02:51.141Z,12.13
2018-08-16T21:05:19.460Z,11.60
2018-08-16T21:07:47.804Z,12.10
2018-08-16T21:10:16.471Z,13.13
2018-08-16T21:12:44.821Z,13.33
2018-08-16T21:15:13.337Z,12.80
2018-08-16T21:17:41.831Z,13.80
2018-08-16T21:20:10.268Z,13.57
2018-08-16T21:22:38.628Z,13.47
2018-08-16T21:25:07.778Z,13.20
2018-08-16T21:27:36.092Z,12.57
2018-08-16T21:30:05.736Z,12.77
2018-08-16T21:32:34.137Z,13.17
2018-08-16T21:35:02.473Z,12.60
2018-08-16T21:37:30.851Z,12.83
2018-08-16T21:39:59.320Z,12.80
2018-08-16T21:42:27.837Z,12.33
2018-08-16T21:44:56.173Z,12.10
2018-08-16T21:47:24.541Z,12.00
2018-08-16T21:49:53.008Z,11.70
2018-08-16T21:52:21.316Z,10.80
2018-08-16T21:54:49.681Z,12.43
2018-08-16T21:57:18.051Z,11.30
2018-08-16T21:59:46.516Z,11.40
2018-08-16T22:02:14.868Z,11.47
2018-08-16T22:04:43.184Z,11.10
2018-08-16T22:07:20.250Z,11.33
2018-08-16T22:09:48.592Z,11.70
2018-08-16T22:12:16.949Z,11.60
2018-08-16T22:14:45.511Z,11.07
2018-08-16T22:17:13.881Z,10.53
2018-08-16T22:19:42.223Z,11.20
2018-08-16T22:22:10.558Z,10.90
2018-08-16T22:24:38.956Z,10.90
2018-08-16T22:27:07.368Z,10.40
2018-08-16T22:29:35.715Z,10.30
2018-08-16T22:32:04.153Z,10.67
2018-08-16T22:34:32.553Z,9.90
2018-08-16T22:37:00.932Z,10.70
2018-08-16T22:39:29.260Z,11.90
2018-08-16T22:41:57.634Z,10.93
2018-08-16T22:44:26.003Z,11.43
2018-08-16T22:46:54.344Z,10.87
2018-08-16T22:49:22.692Z,10.57
2018-08-16T22:51:51.122Z,11.40
2018-08-16T22:54:19.484Z,11.47
2018-08-16T22:56:47.851Z,11.27
2018-08-16T22:59:16.214Z,12.27
2018-08-16T23:01:44.529Z,12.80
2018-08-16T23:04:12.881Z,13.47
2018-08-16T23:06:41.272Z,12.63
2018-08-16T23:09:09.600Z,12.93
2018-08-16T23:11:37.962Z,12.87
2018-08-16T23:14:06.314Z,12.30
2018-08-16T23:16:34.681Z,12.07
2018-08-16T23:19:03.039Z,12.23
2018-08-16T23:21:31.376Z,12.03
2018-08-16T23:23:59.702Z,12.47
2018-08-16T23:26:28.044Z,13.70
2018-08-16T23:28:56.377Z,14.13
2018-08-16T23:31:24.693Z,15.20
2018-08-16T23:33:53.066Z,13.77
2018-08-16T23:36:21.408Z,13.70
2018-08-16T23:38:49.789Z,13.83
2018-08-16T23:41:18.168Z,15.20
2018-08-16T23:43:46.500Z,14.60
2018-08-16T23:46:14.928Z,13.80
2018-08-16T23:48:43.281Z,15.27
2018-08-16T23:51:11.689Z,14.97
2018-08-16T23:53:40.016Z,14.90
2018-08-16T23:56:08.389Z,13.67
2018-08-16T23:58:36.729Z,15.57
